createdAt,value
2016-06-12T00:00:32.029Z,18.85
2016-06-12T00:01:31.767Z,18.83
2016-06-12T00:02:31.801Z,18.83
2016-06-12T00:03:31.679Z,18.81
2016-06-12T00:04:31.698Z,18.79
2016-06-12T00:05:31.294Z,18.85
2016-06-12T00:06:28.533Z,18.86
2016-06-12T00:07:28.502Z,18.82
2016-06-12T00:08:31.486Z,18.88
2016-06-12T00:09:28.439Z,18.74
2016-06-12T00:10:28.434Z,18.78
2016-06-12T00:11:28.459Z,18.81
2016-06-12T00:12:28.407Z,18.76
2016-06-12T00:13:28.416Z,18.76
2016-06-12T00:14:28.394Z,18.76
2016-06-12T00:15:31.210Z,18.78
2016-06-12T00:16:28.303Z,18.79
2016-06-12T00:17:28.288Z,18.74
2016-06-12T00:18:28.258Z,18.81
2016-06-12T00:19:28.222Z,18.86
2016-06-12T00:20:28.621Z,18.88
2016-06-12T00:21:28.192Z,18.86
2016-06-12T00:22:27.934Z,18.82
2016-06-12T00:23:28.067Z,18.83
2016-06-12T00:24:28.026Z,18.81
2016-06-12T00:25:31.177Z,18.78
2016-06-12T00:26:27.927Z,18.79
2016-06-12T00:27:27.900Z,18.68
2016-06-12T00:28:30.847Z,18.79
2016-06-12T00:29:27.800Z,18.78
2016-06-12T00:30:27.976Z,18.85
2016-06-12T00:31:27.729Z,18.76
2016-06-12T00:32:27.670Z,18.7
2016-06-12T00:33:27.814Z,18.79
2016-06-12T00:34:27.584Z,18.78
2016-06-12T00:35:28.415Z,18.78
2016-06-12T00:36:31.234Z,18.83
2016-06-12T00:37:27.437Z,18.76
2016-06-12T00:38:27.628Z,18.79
2016-06-12T00:39:27.350Z,18.7
2016-06-12T00:40:27.447Z,18.71
2016-06-12T00:41:27.262Z,18.76
2016-06-12T00:42:27.297Z,18.81
2016-06-12T00:43:27.190Z,18.73
2016-06-12T00:44:27.350Z,18.74
2016-06-12T00:45:27.087Z,18.78
2016-06-12T00:46:27.028Z,18.78
2016-06-12T00:47:30.203Z,18.68
2016-06-12T00:48:26.940Z,18.66
2016-06-12T00:49:26.896Z,18.64
2016-06-12T00:50:26.900Z,18.68
2016-06-12T00:51:26.887Z,18.66
2016-06-12T00:52:26.766Z,18.68
2016-06-12T00:53:30.002Z,18.66
2016-06-12T00:54:26.678Z,18.66
2016-06-12T00:55:26.665Z,18.74
2016-06-12T00:56:29.589Z,18.63
2016-06-12T00:57:26.531Z,18.64
2016-06-12T00:58:26.502Z,18.63
2016-06-12T00:59:32.490Z,18.63
2016-06-12T01:00:29.399Z,18.73
2016-06-12T01:01:32.386Z,18.81
2016-06-12T01:02:29.327Z,18.71
2016-06-12T01:03:26.471Z,18.76
2016-06-12T01:04:26.225Z,18.64
2016-06-12T01:05:29.180Z,18.66
2016-06-12T01:06:26.151Z,18.66
2016-06-12T01:07:25.936Z,18.63
2016-06-12T01:08:29.049Z,18.61
2016-06-12T01:09:26.410Z,18.63
2016-06-12T01:10:29.180Z,18.63
2016-06-12T01:11:26.121Z,18.63
2016-06-12T01:12:29.279Z,18.76
2016-06-12T01:13:25.814Z,18.64
2016-06-12T01:14:25.989Z,18.78
2016-06-12T01:15:28.742Z,18.79
2016-06-12T01:16:25.887Z,18.71
2016-06-12T01:17:25.654Z,18.83
2016-06-12T01:18:25.658Z,18.79
2016-06-12T01:19:28.566Z,18.74
2016-06-12T01:20:26.663Z,18.74
2016-06-12T01:21:25.463Z,18.74
2016-06-12T01:22:25.638Z,18.64
2016-06-12T01:23:25.564Z,18.66
2016-06-12T01:24:25.317Z,18.74
2016-06-12T01:25:25.273Z,18.67
2016-06-12T01:26:25.432Z,18.64
2016-06-12T01:27:31.763Z,18.74
2016-06-12T01:28:25.141Z,18.71
2016-06-12T01:29:25.082Z,18.6
2016-06-12T01:30:25.054Z,18.66
2016-06-12T01:31:25.526Z,18.7
2016-06-12T01:32:24.966Z,18.66
2016-06-12T01:33:24.953Z,18.66
2016-06-12T01:34:24.863Z,18.61
2016-06-12T01:35:25.257Z,18.63
2016-06-12T01:36:27.791Z,18.67
2016-06-12T01:37:24.966Z,18.66
2016-06-12T01:38:27.704Z,18.63
2016-06-12T01:39:24.722Z,18.6
2016-06-12T01:40:24.616Z,18.61
2016-06-12T01:41:24.573Z,18.67
2016-06-12T01:42:24.512Z,18.64
2016-06-12T01:43:24.500Z,18.6
2016-06-12T01:44:24.268Z,18.67
2016-06-12T01:45:24.585Z,18.63
2016-06-12T01:46:24.541Z,18.61
2016-06-12T01:47:24.293Z,18.63
2016-06-12T01:48:24.250Z,18.63
2016-06-12T01:49:24.191Z,18.66
2016-06-12T01:50:33.037Z,18.61
2016-06-12T01:51:24.119Z,18.6
2016-06-12T01:52:24.106Z,18.55
2016-06-12T01:53:24.031Z,18.58
2016-06-12T01:54:24.003Z,18.67
2016-06-12T01:55:24.460Z,18.6
2016-06-12T01:56:27.571Z,18.64
2016-06-12T01:57:26.840Z,18.63
2016-06-12T01:58:23.812Z,18.6
2016-06-12T01:59:23.955Z,18.63
2016-06-12T02:00:23.709Z,18.57
2016-06-12T02:01:23.650Z,18.52
2016-06-12T02:02:26.637Z,18.46
2016-06-12T02:03:23.421Z,18.55
2016-06-12T02:04:23.534Z,18.53
2016-06-12T02:05:23.677Z,18.6
2016-06-12T02:06:23.633Z,18.48
2016-06-12T02:07:23.386Z,18.55
2016-06-12T02:08:23.358Z,18.42
2016-06-12T02:09:23.300Z,18.43
2016-06-12T02:10:26.271Z,18.43
2016-06-12T02:11:23.227Z,18.43
2016-06-12T02:12:23.168Z,18.52
2016-06-12T02:13:23.155Z,18.49
2016-06-12T02:14:23.065Z,18.53
2016-06-12T02:15:23.021Z,18.52
2016-06-12T02:16:22.977Z,18.6
2016-06-12T02:17:25.933Z,18.63
2016-06-12T02:18:25.889Z,18.57
2016-06-12T02:19:22.845Z,18.48
2016-06-12T02:20:22.817Z,18.45
2016-06-12T02:21:22.742Z,18.43
2016-06-12T02:22:25.746Z,18.48
2016-06-12T02:23:22.685Z,18.55
2016-06-12T02:24:22.704Z,18.51
2016-06-12T02:25:25.598Z,18.49
2016-06-12T02:26:22.539Z,18.51
2016-06-12T02:27:22.683Z,18.45
2016-06-12T02:28:22.747Z,18.45
2016-06-12T02:29:22.392Z,18.45
2016-06-12T02:30:25.207Z,18.49
2016-06-12T02:31:22.304Z,18.58
2016-06-12T02:32:22.245Z,18.48
2016-06-12T02:33:22.217Z,18.48
2016-06-12T02:34:25.172Z,18.51
2016-06-12T02:35:22.160Z,18.52
2016-06-12T02:36:22.085Z,18.45
2016-06-12T02:37:28.056Z,18.49
2016-06-12T02:38:21.998Z,18.48
2016-06-12T02:39:24.938Z,18.53
2016-06-12T02:40:24.910Z,18.53
2016-06-12T02:41:21.912Z,18.53
2016-06-12T02:42:21.807Z,18.57
2016-06-12T02:43:21.779Z,18.39
2016-06-12T02:44:21.703Z,18.46
2016-06-12T02:45:21.675Z,18.41
2016-06-12T02:46:21.819Z,18.45
2016-06-12T02:47:21.587Z,18.52
2016-06-12T02:48:25.075Z,18.46
2016-06-12T02:49:21.687Z,18.49
2016-06-12T02:50:21.300Z,18.37
2016-06-12T02:51:21.974Z,18.37
2016-06-12T02:52:21.369Z,18.37
2016-06-12T02:53:21.309Z,18.37
2016-06-12T02:54:21.265Z,18.33
2016-06-12T02:55:21.206Z,18.31
2016-06-12T02:56:21.194Z,18.31
2016-06-12T02:57:21.117Z,18.39
2016-06-12T02:58:21.090Z,18.3
2016-06-12T02:59:21.046Z,18.31
2016-06-12T03:00:21.002Z,18.36
2016-06-12T03:01:20.959Z,18.23
2016-06-12T03:02:20.915Z,18.31
2016-06-12T03:03:21.261Z,18.26
2016-06-12T03:04:20.811Z,18.24
2016-06-12T03:05:20.628Z,18.28
2016-06-12T03:06:21.317Z,18.27
2016-06-12T03:07:23.680Z,18.36
2016-06-12T03:08:20.637Z,18.31
2016-06-12T03:09:20.796Z,18.36
2016-06-12T03:10:20.470Z,18.41
2016-06-12T03:11:20.490Z,18.37
2016-06-12T03:12:20.461Z,18.42
2016-06-12T03:13:20.402Z,18.36
2016-06-12T03:14:20.358Z,18.36
2016-06-12T03:15:20.298Z,18.31
2016-06-12T03:16:20.256Z,18.3
2016-06-12T03:17:20.414Z,18.37
2016-06-12T03:18:20.401Z,18.34
2016-06-12T03:19:20.139Z,18.36
2016-06-12T03:20:23.313Z,18.39
2016-06-12T03:21:19.911Z,18.41
2016-06-12T03:22:23.007Z,18.48
2016-06-12T03:23:25.963Z,18.51
2016-06-12T03:24:19.920Z,18.43
2016-06-12T03:25:20.064Z,18.45
2016-06-12T03:26:19.864Z,18.45
2016-06-12T03:27:22.773Z,18.39
2016-06-12T03:28:19.932Z,18.46
2016-06-12T03:29:22.701Z,18.46
2016-06-12T03:30:22.642Z,18.37
2016-06-12T03:31:19.785Z,18.39
2016-06-12T03:32:19.382Z,18.28
2016-06-12T03:33:19.495Z,18.37
2016-06-12T03:34:19.451Z,18.39
2016-06-12T03:35:23.376Z,18.3
2016-06-12T03:36:19.362Z,18.27
2016-06-12T03:37:22.335Z,18.23
2016-06-12T03:38:19.291Z,18.27
2016-06-12T03:39:19.232Z,18.26
2016-06-12T03:40:19.032Z,18.26
2016-06-12T03:41:22.160Z,18.3
2016-06-12T03:42:19.320Z,18.28
2016-06-12T03:43:22.056Z,18.31
2016-06-12T03:44:22.028Z,18.33
2016-06-12T03:45:18.953Z,18.28
2016-06-12T03:46:18.909Z,18.33
2016-06-12T03:47:18.866Z,18.36
2016-06-12T03:48:22.025Z,18.43
2016-06-12T03:49:18.777Z,18.46
2016-06-12T03:50:19.610Z,18.48
2016-06-12T03:51:19.394Z,18.52
2016-06-12T03:52:21.647Z,18.49
2016-06-12T03:53:18.619Z,18.48
2016-06-12T03:54:18.747Z,18.49
2016-06-12T03:55:18.391Z,18.45
2016-06-12T03:56:21.487Z,18.49
2016-06-12T03:57:18.427Z,18.48
2016-06-12T03:58:18.384Z,18.49
2016-06-12T03:59:27.543Z,18.46
2016-06-12T04:00:18.281Z,18.37
2016-06-12T04:01:21.237Z,18.41
2016-06-12T04:02:18.411Z,18.45
2016-06-12T04:03:21.195Z,18.43
2016-06-12T04:04:24.824Z,18.49
2016-06-12T04:05:18.546Z,18.46
2016-06-12T04:06:21.002Z,18.51
2016-06-12T04:07:17.958Z,18.45
2016-06-12T04:08:20.946Z,18.48
2016-06-12T04:09:17.964Z,18.41
2016-06-12T04:10:18.108Z,18.37
2016-06-12T04:11:20.986Z,18.36
2016-06-12T04:12:23.958Z,18.27
2016-06-12T04:13:20.898Z,18.3
2016-06-12T04:14:20.668Z,18.34
2016-06-12T04:15:20.436Z,18.37
2016-06-12T04:16:20.565Z,18.36
2016-06-12T04:17:20.521Z,18.39
2016-06-12T04:18:17.508Z,18.37
2016-06-12T04:19:17.416Z,18.39
2016-06-12T04:20:20.405Z,18.34
2016-06-12T04:21:17.189Z,18.41
2016-06-12T04:22:17.379Z,18.34
2016-06-12T04:23:20.257Z,18.36
2016-06-12T04:24:20.589Z,18.36
2016-06-12T04:25:17.155Z,18.36
2016-06-12T04:26:16.954Z,18.3
2016-06-12T04:27:17.098Z,18.33
2016-06-12T04:28:20.554Z,18.3
2016-06-12T04:29:16.980Z,18.41
2016-06-12T04:30:17.123Z,18.34
2016-06-12T04:31:16.876Z,18.42
2016-06-12T04:32:19.847Z,18.37
2016-06-12T04:33:16.820Z,18.34
2016-06-12T04:34:16.776Z,18.34
2016-06-12T04:35:16.716Z,18.39
2016-06-12T04:36:20.829Z,18.37
2016-06-12T04:37:19.613Z,18.34
2016-06-12T04:38:19.804Z,18.34
2016-06-12T04:39:16.510Z,18.41
2016-06-12T04:40:22.481Z,18.41
2016-06-12T04:41:19.454Z,18.36
2016-06-12T04:42:19.395Z,18.45
2016-06-12T04:43:16.538Z,18.42
2016-06-12T04:44:19.307Z,18.45
2016-06-12T04:45:16.263Z,18.49
2016-06-12T04:46:19.203Z,18.45
2016-06-12T04:47:19.175Z,18.46
2016-06-12T04:48:19.116Z,18.45
2016-06-12T04:49:19.072Z,18.46
2016-06-12T04:50:19.028Z,18.46
2016-06-12T04:51:19.000Z,18.46
2016-06-12T04:52:15.941Z,18.48
2016-06-12T04:53:15.896Z,18.48
2016-06-12T04:54:18.852Z,18.42
2016-06-12T04:55:18.997Z,18.46
2016-06-12T04:56:15.750Z,18.52
2016-06-12T04:57:15.705Z,18.61
2016-06-12T04:58:15.662Z,18.6
2016-06-12T04:59:21.650Z,18.6
2016-06-12T05:00:18.621Z,18.6
2016-06-12T05:01:21.531Z,18.55
2016-06-12T05:02:18.487Z,18.63
2016-06-12T05:03:15.427Z,18.63
2016-06-12T05:04:15.399Z,18.66
2016-06-12T05:05:15.855Z,18.67
2016-06-12T05:06:16.109Z,18.66
2016-06-12T05:07:15.253Z,18.64
2016-06-12T05:08:15.224Z,18.68
2016-06-12T05:09:15.164Z,18.67
2016-06-12T05:10:15.106Z,18.73
2016-06-12T05:11:15.109Z,18.71
2016-06-12T05:12:16.001Z,18.64
2016-06-12T05:13:15.083Z,18.66
2016-06-12T05:14:15.039Z,18.67
2016-06-12T05:15:14.964Z,18.7
2016-06-12T05:16:14.858Z,18.7
2016-06-12T05:17:18.080Z,18.64
2016-06-12T05:18:14.755Z,18.66
2016-06-12T05:19:17.727Z,18.64
2016-06-12T05:20:14.667Z,18.66
2016-06-12T05:21:19.264Z,18.64
2016-06-12T05:22:14.580Z,18.67
2016-06-12T05:23:14.521Z,18.7
2016-06-12T05:24:20.507Z,18.61
2016-06-12T05:25:17.323Z,18.64
2016-06-12T05:26:14.404Z,18.68
2016-06-12T05:27:14.658Z,18.61
2016-06-12T05:28:18.036Z,18.57
2016-06-12T05:29:14.273Z,18.58
2016-06-12T05:30:14.229Z,18.6
2016-06-12T05:31:17.264Z,18.61
2016-06-12T05:32:14.141Z,18.63
2016-06-12T05:33:17.395Z,18.53
2016-06-12T05:34:13.944Z,18.45
2016-06-12T05:35:13.995Z,18.43
2016-06-12T05:36:17.528Z,18.45
2016-06-12T05:37:13.907Z,18.46
2016-06-12T05:38:16.863Z,18.37
2016-06-12T05:39:13.820Z,18.36
2016-06-12T05:40:13.776Z,18.37
2016-06-12T05:41:16.732Z,18.39
2016-06-12T05:42:16.672Z,18.46
2016-06-12T05:43:16.628Z,18.51
2016-06-12T05:44:13.600Z,18.41
2016-06-12T05:45:19.541Z,18.49
2016-06-12T05:46:13.481Z,18.51
2016-06-12T05:47:13.453Z,18.41
2016-06-12T05:48:16.425Z,18.51
2016-06-12T05:49:16.350Z,18.49
2016-06-12T05:50:16.321Z,18.51
2016-06-12T05:51:13.341Z,18.43
2016-06-12T05:52:13.250Z,18.46
2016-06-12T05:53:13.238Z,18.34
2016-06-12T05:54:13.131Z,18.39
2016-06-12T05:55:16.712Z,18.31
2016-06-12T05:56:13.059Z,18.41
2016-06-12T05:57:12.843Z,18.41
2016-06-12T05:58:12.816Z,18.34
2016-06-12T05:59:12.912Z,18.36
2016-06-12T06:00:13.087Z,18.28
2016-06-12T06:01:16.044Z,18.18
2016-06-12T06:02:12.765Z,18.34
2016-06-12T06:03:12.722Z,18.26
2016-06-12T06:04:12.896Z,18.23
2016-06-12T06:05:15.650Z,18.3
2016-06-12T06:06:16.120Z,18.18
2016-06-12T06:07:12.765Z,18.19
2016-06-12T06:08:15.502Z,18.21
2016-06-12T06:09:15.474Z,18.21
2016-06-12T06:10:12.415Z,18.23
2016-06-12T06:11:18.793Z,18.23
2016-06-12T06:12:21.171Z,18.09
2016-06-12T06:13:15.299Z,18.18
2016-06-12T06:14:15.270Z,18.15
2016-06-12T06:15:12.399Z,18.15
2016-06-12T06:16:12.245Z,18.26
2016-06-12T06:17:12.154Z,18.15
2016-06-12T06:18:12.174Z,18.19
2016-06-12T06:19:12.005Z,18.13
2016-06-12T06:20:11.961Z,18.12
2016-06-12T06:21:14.948Z,18.19
2016-06-12T06:22:12.248Z,18.18
2016-06-12T06:23:11.830Z,18.24
2016-06-12T06:24:11.801Z,18.23
2016-06-12T06:25:17.757Z,18.23
2016-06-12T06:26:17.902Z,18.28
2016-06-12T06:27:11.857Z,18.34
2016-06-12T06:28:17.626Z,18.41
2016-06-12T06:29:14.770Z,18.36
2016-06-12T06:30:11.898Z,18.3
2016-06-12T06:31:20.464Z,18.28
2016-06-12T06:32:17.466Z,18.41
2016-06-12T06:33:14.329Z,18.39
2016-06-12T06:34:11.317Z,18.3
2016-06-12T06:35:17.506Z,18.37
2016-06-12T06:36:12.745Z,18.41
2016-06-12T06:37:14.466Z,18.42
2016-06-12T06:38:11.157Z,18.49
2016-06-12T06:39:11.113Z,18.55
2016-06-12T06:40:11.054Z,18.55
2016-06-12T06:41:13.870Z,18.64
2016-06-12T06:42:10.966Z,18.67
2016-06-12T06:43:11.329Z,18.61
2016-06-12T06:44:10.878Z,18.63
2016-06-12T06:45:10.819Z,18.74
2016-06-12T06:46:10.776Z,18.74
2016-06-12T06:47:10.747Z,18.76
2016-06-12T06:48:10.703Z,18.85
2016-06-12T06:49:10.643Z,18.83
2016-06-12T06:50:10.600Z,18.83
2016-06-12T06:51:11.916Z,19
2016-06-12T06:52:10.950Z,18.83
2016-06-12T06:53:10.468Z,18.91
2016-06-12T06:54:10.253Z,18.97
2016-06-12T06:55:13.396Z,18.97
2016-06-12T06:56:10.368Z,18.96
2016-06-12T06:57:10.497Z,18.97
2016-06-12T06:58:10.234Z,18.98
2016-06-12T06:59:13.221Z,19.08
2016-06-12T07:00:13.162Z,18.98
2016-06-12T07:01:13.337Z,18.91
2016-06-12T07:02:10.075Z,18.98
2016-06-12T07:03:10.015Z,18.97
2016-06-12T07:04:09.971Z,18.97
2016-06-12T07:05:09.943Z,19.01
2016-06-12T07:06:09.899Z,18.98
2016-06-12T07:07:10.059Z,18.96
2016-06-12T07:08:09.812Z,18.92
2016-06-12T07:09:09.753Z,19.15
2016-06-12T07:10:09.692Z,19.15
2016-06-12T07:11:09.665Z,19.15
2016-06-12T07:12:09.793Z,19.19
2016-06-12T07:13:12.593Z,19.15
2016-06-12T07:14:09.532Z,19.16
2016-06-12T07:15:09.474Z,19.12
2016-06-12T07:16:09.446Z,19.2
2016-06-12T07:17:09.402Z,19.16
2016-06-12T07:18:09.358Z,19.22
2016-06-12T07:19:09.298Z,19.16
2016-06-12T07:20:09.255Z,19.2
2016-06-12T07:21:09.648Z,19.17
2016-06-12T07:22:12.495Z,19.23
2016-06-12T07:23:09.421Z,19.32
2016-06-12T07:24:15.096Z,19.32
2016-06-12T07:25:11.895Z,19.44
2016-06-12T07:26:08.836Z,19.42
2016-06-12T07:27:11.963Z,19.42
2016-06-12T07:28:11.904Z,19.47
2016-06-12T07:29:08.861Z,19.39
2016-06-12T07:30:08.832Z,19.52
2016-06-12T07:31:08.664Z,19.52
2016-06-12T07:32:08.698Z,19.52
2016-06-12T07:33:11.685Z,19.48
2016-06-12T07:34:08.641Z,19.44
2016-06-12T07:35:08.597Z,19.48
2016-06-12T07:36:08.538Z,19.38
2016-06-12T07:37:08.541Z,19.44
2016-06-12T07:38:08.451Z,19.38
2016-06-12T07:39:08.985Z,19.35
2016-06-12T07:40:11.567Z,19.38
2016-06-12T07:41:08.320Z,19.34
2016-06-12T07:42:08.260Z,19.35
2016-06-12T07:43:11.232Z,19.29
2016-06-12T07:44:08.188Z,19.34
2016-06-12T07:45:11.207Z,19.42
2016-06-12T07:46:11.100Z,19.38
2016-06-12T07:47:08.134Z,19.32
2016-06-12T07:48:08.012Z,19.27
2016-06-12T07:49:07.969Z,19.3
2016-06-12T07:50:07.909Z,19.39
2016-06-12T07:51:08.084Z,19.34
2016-06-12T07:52:08.399Z,19.35
2016-06-12T07:53:07.778Z,19.38
2016-06-12T07:54:19.938Z,19.34
2016-06-12T07:55:08.206Z,19.41
2016-06-12T07:56:07.850Z,19.37
2016-06-12T07:57:11.134Z,19.38
2016-06-12T07:58:07.575Z,19.41
2016-06-12T07:59:07.703Z,19.38
2016-06-12T08:00:10.487Z,19.39
2016-06-12T08:01:07.256Z,19.38
2016-06-12T08:02:07.447Z,19.42
2016-06-12T08:03:10.324Z,19.37
2016-06-12T08:04:07.312Z,19.47
2016-06-12T08:05:07.252Z,19.38
2016-06-12T08:06:10.208Z,19.47
2016-06-12T08:07:06.993Z,19.55
2016-06-12T08:08:09.948Z,19.52
2016-06-12T08:09:07.077Z,19.52
2016-06-12T08:10:07.018Z,19.63
2016-06-12T08:11:10.005Z,19.64
2016-06-12T08:12:06.774Z,19.64
2016-06-12T08:13:06.746Z,19.78
2016-06-12T08:14:06.858Z,19.79
2016-06-12T08:15:06.799Z,19.78
2016-06-12T08:16:06.770Z,19.9
2016-06-12T08:17:06.726Z,19.9
2016-06-12T08:18:09.870Z,19.97
2016-06-12T08:19:06.827Z,19.89
2016-06-12T08:20:06.579Z,19.77
2016-06-12T08:21:06.536Z,19.84
2016-06-12T08:22:06.492Z,19.67
2016-06-12T08:23:09.495Z,19.71
2016-06-12T08:24:09.405Z,19.79
2016-06-12T08:25:06.361Z,19.72
2016-06-12T08:26:06.318Z,19.72
2016-06-12T08:27:06.273Z,19.67
2016-06-12T08:28:06.245Z,19.64
2016-06-12T08:29:06.171Z,19.56
2016-06-12T08:30:06.157Z,19.55
2016-06-12T08:31:09.099Z,19.66
2016-06-12T08:32:09.054Z,19.81
2016-06-12T08:33:05.994Z,19.67
2016-06-12T08:34:05.967Z,19.67
2016-06-12T08:35:05.922Z,19.74
2016-06-12T08:36:05.864Z,19.78
2016-06-12T08:37:08.835Z,19.79
2016-06-12T08:38:12.041Z,19.85
2016-06-12T08:39:05.748Z,19.85
2016-06-12T08:40:05.704Z,19.82
2016-06-12T08:41:05.644Z,19.82
2016-06-12T08:42:08.601Z,19.74
2016-06-12T08:43:05.557Z,19.71
2016-06-12T08:44:08.575Z,19.77
2016-06-12T08:45:08.470Z,19.85
2016-06-12T08:46:08.628Z,19.79
2016-06-12T08:47:05.381Z,19.81
2016-06-12T08:48:08.354Z,19.79
2016-06-12T08:49:05.294Z,19.9
2016-06-12T08:50:05.250Z,19.85
2016-06-12T08:51:08.206Z,19.75
2016-06-12T08:52:05.553Z,19.9
2016-06-12T08:53:08.134Z,19.94
2016-06-12T08:54:08.060Z,19.94
2016-06-12T08:55:05.032Z,19.92
2016-06-12T08:56:04.971Z,20.07
2016-06-12T08:57:04.929Z,20.02
2016-06-12T08:58:05.088Z,20.08
2016-06-12T08:59:05.372Z,20.07
2016-06-12T09:00:04.827Z,20.04
2016-06-12T09:01:04.784Z,20.1
2016-06-12T09:02:04.725Z,20.02
2016-06-12T09:03:04.665Z,20.02
2016-06-12T09:04:07.481Z,20
2016-06-12T09:05:04.578Z,20.14
2016-06-12T09:06:04.549Z,20.15
2016-06-12T09:07:04.521Z,20.15
2016-06-12T09:08:07.463Z,20.1
2016-06-12T09:09:04.402Z,20.08
2016-06-12T09:10:07.359Z,20.07
2016-06-12T09:11:04.175Z,20.15
2016-06-12T09:12:04.286Z,20.1
2016-06-12T09:13:07.242Z,20.14
2016-06-12T09:14:04.028Z,20.1
2016-06-12T09:15:04.415Z,20.08
2016-06-12T09:16:04.194Z,20.1
2016-06-12T09:17:07.206Z,20.12
2016-06-12T09:18:04.391Z,20.08
2016-06-12T09:19:04.168Z,20.15
2016-06-12T09:20:07.171Z,20.19
2016-06-12T09:21:07.125Z,20.27
2016-06-12T09:22:03.987Z,20.26
2016-06-12T09:23:04.614Z,20.26
2016-06-12T09:24:04.022Z,20.33
2016-06-12T09:25:03.983Z,20.27
2016-06-12T09:26:04.147Z,20.27
2016-06-12T09:27:03.905Z,20.3
2016-06-12T09:28:03.867Z,20.18
2016-06-12T09:29:06.875Z,20.22
2016-06-12T09:30:03.818Z,20.27
2016-06-12T09:31:03.588Z,20.27
2016-06-12T09:32:03.719Z,20.42
2016-06-12T09:33:03.676Z,20.36
2016-06-12T09:34:04.071Z,20.46
2016-06-12T09:35:03.435Z,20.4
2016-06-12T09:36:03.517Z,20.4
2016-06-12T09:37:03.536Z,20.46
2016-06-12T09:38:03.899Z,20.5
2016-06-12T09:39:03.419Z,20.48
2016-06-12T09:40:03.360Z,20.58
2016-06-12T09:41:03.332Z,20.56
2016-06-12T09:42:06.289Z,20.7
2016-06-12T09:43:06.276Z,20.73
2016-06-12T09:44:03.202Z,20.78
2016-06-12T09:45:03.143Z,20.8
2016-06-12T09:46:03.114Z,20.86
2016-06-12T09:47:02.899Z,20.96
2016-06-12T09:48:03.011Z,21.07
2016-06-12T09:49:02.983Z,21.05
2016-06-12T09:50:02.923Z,21.01
2016-06-12T09:51:02.880Z,20.92
2016-06-12T09:52:05.851Z,20.96
2016-06-12T09:53:03.010Z,21.01
2016-06-12T09:54:08.764Z,20.98
2016-06-12T09:55:02.705Z,20.95
2016-06-12T09:56:08.519Z,20.95
2016-06-12T09:57:02.616Z,20.93
2016-06-12T09:58:02.573Z,20.89
2016-06-12T09:59:02.545Z,20.8
2016-06-12T10:00:02.517Z,20.83
2016-06-12T10:01:02.442Z,20.8
2016-06-12T10:02:02.429Z,20.86
2016-06-12T10:03:02.369Z,20.8
2016-06-12T10:04:02.326Z,20.82
2016-06-12T10:05:02.297Z,20.77
2016-06-12T10:06:02.223Z,20.95
2016-06-12T10:07:02.194Z,21.03
2016-06-12T10:08:02.353Z,21.19
2016-06-12T10:09:05.201Z,21.38
2016-06-12T10:10:02.095Z,21.48
2016-06-12T10:11:02.003Z,21.51
2016-06-12T10:12:01.960Z,21.56
2016-06-12T10:13:02.635Z,21.5
2016-06-12T10:14:04.872Z,21.5
2016-06-12T10:15:01.844Z,21.58
2016-06-12T10:16:01.800Z,21.63
2016-06-12T10:17:01.787Z,21.62
2016-06-12T10:18:02.415Z,21.66
2016-06-12T10:19:01.716Z,21.77
2016-06-12T10:20:04.625Z,21.7
2016-06-12T10:21:07.612Z,21.78
2016-06-12T10:22:01.538Z,21.81
2016-06-12T10:23:01.885Z,21.83
2016-06-12T10:24:01.466Z,21.96
2016-06-12T10:25:01.266Z,21.94
2016-06-12T10:26:01.253Z,22.01
2016-06-12T10:27:04.365Z,22.1
2016-06-12T10:28:01.290Z,21.99
2016-06-12T10:29:01.246Z,22.01
2016-06-12T10:30:01.187Z,22.07
2016-06-12T10:31:01.175Z,22.12
2016-06-12T10:32:04.147Z,22.15
2016-06-12T10:33:01.072Z,22.06
2016-06-12T10:34:01.027Z,21.92
2016-06-12T10:35:00.984Z,21.89
2016-06-12T10:36:00.937Z,21.75
2016-06-12T10:37:00.909Z,21.8
2016-06-12T10:38:01.524Z,21.83
2016-06-12T10:39:06.824Z,21.85
2016-06-12T10:40:00.824Z,21.83
2016-06-12T10:41:04.018Z,21.88
2016-06-12T10:42:00.705Z,21.74
2016-06-12T10:43:06.508Z,21.56
2016-06-12T10:44:00.446Z,21.63
2016-06-12T10:45:00.542Z,21.48
2016-06-12T10:46:00.811Z,21.5
2016-06-12T10:47:00.486Z,21.48
2016-06-12T10:48:00.426Z,21.44
2016-06-12T10:49:00.399Z,21.41
2016-06-12T10:50:00.340Z,21.37
2016-06-12T10:51:00.295Z,21.26
2016-06-12T10:52:03.458Z,21.3
2016-06-12T10:53:06.226Z,21.29
2016-06-12T10:54:00.163Z,21.29
2016-06-12T10:55:03.123Z,21.3
2016-06-12T10:56:00.076Z,21.19
2016-06-12T10:57:00.236Z,21.11
2016-06-12T10:57:59.989Z,20.95
2016-06-12T10:59:00.164Z,20.83
2016-06-12T10:59:59.963Z,20.74
2016-06-12T11:00:59.873Z,20.68
2016-06-12T11:01:59.829Z,20.59
2016-06-12T11:03:03.008Z,20.58
2016-06-12T11:04:02.744Z,20.56
2016-06-12T11:04:59.681Z,20.52
2016-06-12T11:05:59.654Z,20.48
2016-06-12T11:06:59.626Z,20.36
2016-06-12T11:08:02.519Z,20.24
2016-06-12T11:08:59.554Z,20.08
2016-06-12T11:09:59.479Z,20.1
2016-06-12T11:11:05.657Z,20
2016-06-12T11:11:59.391Z,19.94
2016-06-12T11:12:59.378Z,19.92
2016-06-12T11:13:59.303Z,19.82
2016-06-12T11:14:59.260Z,19.81
2016-06-12T11:15:59.232Z,19.75
2016-06-12T11:16:59.173Z,19.71
2016-06-12T11:17:59.144Z,19.72
2016-06-12T11:18:59.678Z,19.71
2016-06-12T11:19:59.072Z,19.74
2016-06-12T11:20:58.997Z,19.75
2016-06-12T11:21:58.938Z,19.78
2016-06-12T11:23:10.959Z,19.78
2016-06-12T11:23:59.100Z,19.7
2016-06-12T11:24:58.822Z,19.72
2016-06-12T11:26:01.762Z,19.74
2016-06-12T11:27:01.734Z,19.63
2016-06-12T11:27:58.674Z,19.72
2016-06-12T11:28:58.818Z,19.74
2016-06-12T11:30:01.603Z,19.74
2016-06-12T11:30:58.590Z,19.71
2016-06-12T11:31:58.499Z,19.74
2016-06-12T11:32:58.440Z,19.67
2016-06-12T11:33:58.412Z,19.74
2016-06-12T11:34:58.368Z,19.63
2016-06-12T11:35:58.309Z,19.64
2016-06-12T11:36:58.280Z,19.66
2016-06-12T11:37:58.238Z,19.62
2016-06-12T11:38:58.319Z,19.66
2016-06-12T11:39:58.134Z,19.66
2016-06-12T11:40:58.106Z,19.62
2016-06-12T11:42:04.470Z,19.64
2016-06-12T11:42:58.002Z,19.62
2016-06-12T11:43:57.973Z,19.75
2016-06-12T11:45:07.183Z,19.78
2016-06-12T11:46:03.871Z,19.81
2016-06-12T11:47:00.827Z,19.77
2016-06-12T11:47:57.799Z,19.81
2016-06-12T11:48:57.739Z,19.52
2016-06-12T11:50:11.823Z,19.49
2016-06-12T11:50:57.667Z,19.55
2016-06-12T11:51:57.623Z,19.45
2016-06-12T11:52:58.345Z,19.53
2016-06-12T11:54:00.521Z,19.62
2016-06-12T11:54:57.679Z,19.74
2016-06-12T11:55:57.433Z,19.72
2016-06-12T11:56:57.389Z,19.87
2016-06-12T11:58:00.344Z,20
2016-06-12T11:59:00.301Z,20.18
2016-06-12T11:59:57.242Z,20.19
2016-06-12T12:00:57.198Z,20.37
2016-06-12T12:01:57.186Z,20.59
2016-06-12T12:02:57.126Z,20.73
2016-06-12T12:03:57.582Z,20.89
2016-06-12T12:05:00.241Z,21.07
2016-06-12T12:05:56.979Z,21.15
2016-06-12T12:06:56.935Z,21.23
2016-06-12T12:07:56.922Z,21.37
2016-06-12T12:08:56.863Z,21.4
2016-06-12T12:09:56.819Z,21.45
2016-06-12T12:10:56.823Z,21.47
2016-06-12T12:11:59.731Z,21.58
2016-06-12T12:12:56.687Z,21.53
2016-06-12T12:13:56.644Z,21.56
2016-06-12T12:14:56.866Z,21.66
2016-06-12T12:15:56.744Z,21.7
2016-06-12T12:16:56.498Z,21.66
2016-06-12T12:17:56.453Z,21.68
2016-06-12T12:18:56.628Z,21.7
2016-06-12T12:19:56.445Z,21.77
2016-06-12T12:20:56.323Z,21.68
2016-06-12T12:21:56.279Z,21.85
2016-06-12T12:22:57.235Z,21.81
2016-06-12T12:24:05.191Z,21.8
2016-06-12T12:24:56.146Z,21.81
2016-06-12T12:26:02.135Z,21.65
2016-06-12T12:26:59.700Z,21.58
2016-06-12T12:27:56.030Z,21.62
2016-06-12T12:28:56.190Z,21.58
2016-06-12T12:29:55.943Z,21.38
2016-06-12T12:30:55.900Z,21.33
2016-06-12T12:31:56.060Z,21.32
2016-06-12T12:32:56.015Z,21.28
2016-06-12T12:33:55.769Z,21.32
2016-06-12T12:34:55.725Z,21.14
2016-06-12T12:35:58.696Z,21.1
2016-06-12T12:36:55.621Z,21.07
2016-06-12T12:37:56.030Z,21.11
2016-06-12T12:38:55.814Z,20.96
2016-06-12T12:39:58.724Z,20.89
2016-06-12T12:40:58.493Z,20.95
2016-06-12T12:41:58.433Z,21
2016-06-12T12:42:55.390Z,20.89
2016-06-12T12:43:58.346Z,20.95
2016-06-12T12:44:55.303Z,20.86
2016-06-12T12:45:55.242Z,20.78
2016-06-12T12:46:55.417Z,20.83
2016-06-12T12:47:58.170Z,20.66
2016-06-12T12:48:55.517Z,20.58
2016-06-12T12:49:55.068Z,20.58
2016-06-12T12:50:55.040Z,20.4
2016-06-12T12:51:54.980Z,20.39
2016-06-12T12:52:55.296Z,20.3
2016-06-12T12:53:55.314Z,20.27
2016-06-12T12:54:54.864Z,20.14